Time;durP1;ratioP1;P1;durP2;ratioP2;P2;SDS_P1;SDS_P2;PMS_P1;PMS_P2;Temp;Humidity;BMP_temperature;BMP_pressure;BME280_temperature;BME280_humidity;BME280_pressure;Samples;Min_cycle;Max_cycle;Signal;HPM_P1;HPM_P2
2022/12/17 13:09:15;;;;;;;75.03;36.50;;;;;;;;;;12847768;19;20010;-64
2022/12/17 13:13:54;;;;;;;55.63;25.58;;;;;;;;;;12847717;19;20011;-63
2022/12/17 13:18:36;;;;;;;54.70;22.95;;;;;;;;;;12846055;19;20031;-63
2022/12/17 13:23:07;;;;;;;56.33;23.02;;;;;;;;;;12847267;19;20357;-64
2022/12/17 13:27:32;;;;;;;58.40;24.67;;;;;;;;;;12847161;19;20018;-63
2022/12/17 13:32:19;;;;;;;66.05;29.70;;;;;;;;;;12845106;19;20433;-64
2022/12/17 13:36:54;;;;;;;77.18;28.85;;;;;;;;;;12846527;19;20558;-63
2022/12/17 13:41:26;;;;;;;121.43;40.33;;;;;;;;;;12843387;19;20505;-63
2022/12/17 13:45:43;;;;;;;112.00;36.35;;;;;;;;;;12844774;19;20544;-64
2022/12/17 13:50:17;;;;;;;115.65;39.20;;;;;;;;;;12845411;19;20037;-63
2022/12/17 13:54:52;;;;;;;58.70;26.35;;;;;;;;;;12844724;19;20007;-63
2022/12/17 13:59:22;;;;;;;59.83;25.80;;;;;;;;;;12845570;19;20010;-63
2022/12/17 14:03:50;;;;;;;72.63;31.48;;;;;;;;;;12845327;19;20489;-63
2022/12/17 14:08:27;;;;;;;71.07;30.05;;;;;;;;;;12843325;19;20468;-63
2022/12/17 14:12:45;;;;;;;60.42;28.98;;;;;;;;;;12841146;19;20309;-63
2022/12/17 14:17:03;;;;;;;62.85;26.77;;;;;;;;;;12842621;19;20011;-63
2022/12/17 14:21:21;;;;;;;60.43;26.80;;;;;;;;;;12843172;19;20041;-64
2022/12/17 14:25:41;;;;;;;73.68;31.73;;;;;;;;;;12842818;19;20227;-64
2022/12/17 14:29:59;;;;;;;66.30;28.17;;;;;;;;;;12842117;19;20429;-63
2022/12/17 14:34:16;;;;;;;58.28;25.30;;;;;;;;;;12842442;19;20295;-64
2022/12/17 14:38:34;;;;;;;57.42;25.80;;;;;;;;;;12843424;19;20338;-63
2022/12/17 14:43:00;;;;;;;57.67;25.70;;;;;;;;;;12843586;19;20006;-64
2022/12/17 14:47:31;;;;;;;58.58;24.30;;;;;;;;;;12840878;19;20011;-63
2022/12/17 14:51:49;;;;;;;56.90;26.15;;;;;;;;;;12843248;19;20314;-64
2022/12/17 14:56:22;;;;;;;64.25;26.25;;;;;;;;;;12841067;19;20489;-64
2022/12/17 15:00:49;;;;;;;67.47;26.75;;;;;;;;;;12841992;19;20334;-63
2022/12/17 15:05:15;;;;;;;57.30;23.27;;;;;;;;;;12839371;19;20461;-63
2022/12/17 15:09:36;;;;;;;61.88;24.58;;;;;;;;;;12838968;19;20027;-63
2022/12/17 15:13:54;;;;;;;52.50;21.67;;;;;;;;;;12840046;19;20425;-64
2022/12/17 15:18:13;;;;;;;52.97;20.70;;;;;;;;;;12837265;19;20477;-65
2022/12/17 15:22:30;;;;;;;58.33;26.17;;;;;;;;;;12839444;19;20011;-65
2022/12/17 15:26:48;;;;;;;59.55;24.92;;;;;;;;;;12837354;19;20010;-64
2022/12/17 15:31:05;;;;;;;66.32;26.42;;;;;;;;;;12840396;19;20359;-63
2022/12/17 15:35:22;;;;;;;68.93;29.63;;;;;;;;;;12840026;19;20317;-64
2022/12/17 15:39:39;;;;;;;60.22;26.13;;;;;;;;;;12839596;19;20425;-64
2022/12/17 15:43:56;;;;;;;61.90;25.83;;;;;;;;;;12840056;19;20445;-63
2022/12/17 15:48:20;;;;;;;72.80;30.52;;;;;;;;;;12839313;19;20023;-65
2022/12/17 15:52:37;;;;;;;80.03;30.55;;;;;;;;;;12838814;19;20366;-63
2022/12/17 15:56:55;;;;;;;67.20;28.98;;;;;;;;;;12838260;19;20360;-65
2022/12/17 16:01:12;;;;;;;66.78;27.90;;;;;;;;;;12840310;19;20314;-63
2022/12/17 16:05:29;;;;;;;73.28;28.63;;;;;;;;;;12835607;19;20475;-64
2022/12/17 16:09:46;;;;;;;65.18;29.15;;;;;;;;;;12836735;19;20475;-63
2022/12/17 16:14:03;;;;;;;75.80;29.55;;;;;;;;;;12835677;19;20445;-64
2022/12/17 16:18:22;;;;;;;66.65;26.60;;;;;;;;;;12836720;19;20014;-64
2022/12/17 16:22:39;;;;;;;68.63;29.55;;;;;;;;;;12835780;19;20025;-63
2022/12/17 16:26:56;;;;;;;68.35;25.88;;;;;;;;;;12836377;19;20331;-64
2022/12/17 16:31:20;;;;;;;112.45;43.03;;;;;;;;;;12835003;19;20442;-64
2022/12/17 16:35:37;;;;;;;69.55;28.83;;;;;;;;;;12835367;19;20444;-65
2022/12/17 16:39:54;;;;;;;64.25;29.42;;;;;;;;;;12835506;19;20311;-64
2022/12/17 16:44:16;;;;;;;66.65;26.92;;;;;;;;;;12836045;19;20470;-63
2022/12/17 16:48:37;;;;;;;58.88;26.77;;;;;;;;;;12836060;19;20324;-64
2022/12/17 16:52:55;;;;;;;77.93;29.73;;;;;;;;;;12835169;19;20379;-63
2022/12/17 16:57:12;;;;;;;72.57;29.17;;;;;;;;;;12836161;19;20006;-64
2022/12/17 17:01:30;;;;;;;72.88;28.40;;;;;;;;;;12835943;19;20465;-64
2022/12/17 17:05:48;;;;;;;86.78;36.63;;;;;;;;;;12833954;19;20318;-63
2022/12/17 17:10:05;;;;;;;77.22;32.53;;;;;;;;;;12834990;19;20006;-63
2022/12/17 17:14:23;;;;;;;73.82;29.38;;;;;;;;;;12833611;19;20301;-63
2022/12/17 17:18:40;;;;;;;71.37;30.30;;;;;;;;;;12840733;19;20065;-64
2022/12/17 17:22:58;;;;;;;68.90;29.38;;;;;;;;;;12845605;19;20469;-63
2022/12/17 17:27:15;;;;;;;69.93;29.03;;;;;;;;;;12845625;19;20007;-63
2022/12/17 17:31:34;;;;;;;69.22;28.75;;;;;;;;;;12844971;19;20418;-64
2022/12/17 17:36:31;;;;;;;66.28;26.75;;;;;;;;;;12845397;19;20321;-64
2022/12/17 17:40:54;;;;;;;77.53;34.08;;;;;;;;;;12844820;19;20480;-64
2022/12/17 17:45:11;;;;;;;60.80;25.20;;;;;;;;;;12843715;19;20493;-64
2022/12/17 17:49:29;;;;;;;56.28;24.65;;;;;;;;;;12845905;19;20318;-63
2022/12/17 17:53:48;;;;;;;72.88;28.20;;;;;;;;;;12845142;19;20433;-65
2022/12/17 17:58:06;;;;;;;59.58;23.63;;;;;;;;;;12844125;19;20355;-63
2022/12/17 18:02:23;;;;;;;57.80;26.83;;;;;;;;;;12845482;19;20445;-64
2022/12/17 18:06:43;;;;;;;68.28;30.65;;;;;;;;;;12845224;19;20469;-64
2022/12/17 18:11:22;;;;;;;67.75;28.92;;;;;;;;;;12842381;19;20403;-63
2022/12/17 18:15:39;;;;;;;59.00;27.17;;;;;;;;;;12842255;19;20294;-66
2022/12/17 18:19:57;;;;;;;64.50;25.17;;;;;;;;;;12842037;19;20527;-64
2022/12/17 18:24:21;;;;;;;62.58;26.92;;;;;;;;;;12842458;19;20019;-65
2022/12/17 18:28:39;;;;;;;63.60;26.23;;;;;;;;;;12842416;19;20018;-65
2022/12/17 18:32:56;;;;;;;;;;;;;;;;;;12842536;19;20608;-63
2022/12/17 18:37:13;;;;;;;68.05;25.58;;;;;;;;;;12842188;19;20317;-64
2022/12/17 18:46:06;;;;;;;55.60;25.95;;;;;;;;;;12841007;19;20444;-63
2022/12/17 18:50:23;;;;;;;62.53;25.20;;;;;;;;;;12842557;19;20536;-63
2022/12/17 18:54:40;;;;;;;62.55;26.60;;;;;;;;;;12840580;19;20010;-63
2022/12/17 18:58:58;;;;;;;53.08;23.05;;;;;;;;;;12841909;19;20014;-63
2022/12/17 19:03:15;;;;;;;57.77;21.90;;;;;;;;;;12841836;19;20493;-64
2022/12/17 19:07:32;;;;;;;56.40;22.25;;;;;;;;;;12843717;19;20002;-64
2022/12/17 19:11:51;;;;;;;55.22;21.65;;;;;;;;;;12840425;19;20301;-64
2022/12/17 19:16:17;;;;;;;53.85;22.48;;;;;;;;;;12841181;19;20283;-63
2022/12/17 19:20:35;;;;;;;61.53;22.55;;;;;;;;;;12840038;19;20301;-63
2022/12/17 19:24:51;;;;;;;57.67;23.17;;;;;;;;;;12837874;19;20318;-63
2022/12/17 19:29:11;;;;;;;53.92;21.38;;;;;;;;;;12839150;19;20456;-63
2022/12/17 19:33:28;;;;;;;54.72;22.15;;;;;;;;;;12837058;19;20021;-64
2022/12/17 19:37:45;;;;;;;65.35;26.05;;;;;;;;;;12839930;19;20018;-64
2022/12/17 19:42:02;;;;;;;61.30;27.50;;;;;;;;;;12838008;19;20548;-64
2022/12/17 19:46:20;;;;;;;59.53;24.15;;;;;;;;;;12839389;19;20015;-64
2022/12/17 19:50:37;;;;;;;58.05;21.45;;;;;;;;;;12840063;19;20002;-63
2022/12/17 19:54:54;;;;;;;61.90;23.00;;;;;;;;;;12838469;19;20411;-63
2022/12/17 19:59:12;;;;;;;52.83;22.02;;;;;;;;;;12835660;19;20426;-63
2022/12/17 20:03:29;;;;;;;;;;;;;;;;;;12838662;19;20033;-64
2022/12/17 20:07:47;;;;;;;57.47;22.52;;;;;;;;;;12838295;19;20198;-65
2022/12/17 20:12:05;;;;;;;54.20;22.05;;;;;;;;;;12836644;19;20437;-65
2022/12/17 20:16:22;;;;;;;63.35;25.60;;;;;;;;;;12837393;19;20473;-64
2022/12/17 20:20:40;;;;;;;53.83;22.05;;;;;;;;;;12836933;19;20462;-65
2022/12/17 20:24:57;;;;;;;59.15;24.67;;;;;;;;;;12838520;19;20387;-65
2022/12/17 20:29:14;;;;;;;50.27;21.80;;;;;;;;;;12836822;19;20359;-65
2022/12/17 20:33:32;;;;;;;55.25;22.63;;;;;;;;;;12834843;19;20498;-63
2022/12/17 20:37:49;;;;;;;47.67;19.87;;;;;;;;;;12836777;19;20322;-65
2022/12/17 20:42:06;;;;;;;45.10;18.83;;;;;;;;;;12835641;19;20334;-63
2022/12/17 20:46:24;;;;;;;57.13;21.90;;;;;;;;;;12836885;19;20015;-64
2022/12/17 20:50:42;;;;;;;69.40;26.17;;;;;;;;;;12838387;19;20461;-64
2022/12/17 20:54:59;;;;;;;43.90;19.92;;;;;;;;;;12847685;19;20330;-64
2022/12/17 20:59:17;;;;;;;45.53;19.95;;;;;;;;;;12847303;19;20014;-64
2022/12/17 21:03:35;;;;;;;40.67;18.17;;;;;;;;;;12847701;19;20325;-65
2022/12/17 21:07:52;;;;;;;46.50;19.30;;;;;;;;;;12847976;19;20334;-64
2022/12/17 21:12:12;;;;;;;41.80;18.38;;;;;;;;;;12844044;19;20033;-64
2022/12/17 21:16:30;;;;;;;41.05;18.27;;;;;;;;;;12847617;19;20474;-64
2022/12/17 21:20:57;;;;;;;;;;;;;;;;;;12845395;19;20668;-63
2022/12/17 21:25:14;;;;;;;38.90;19.95;;;;;;;;;;12846249;19;20244;-64
2022/12/17 21:29:32;;;;;;;40.10;17.30;;;;;;;;;;12847244;19;20441;-64
2022/12/17 21:33:52;;;;;;;36.28;17.10;;;;;;;;;;12845253;19;20456;-64
2022/12/17 21:38:10;;;;;;;33.63;15.65;;;;;;;;;;12842590;19;20306;-65
2022/12/17 21:47:03;;;;;;;30.60;12.82;;;;;;;;;;12846356;19;20469;-63
2022/12/17 21:51:21;;;;;;;36.80;15.60;;;;;;;;;;12846293;19;20446;-63
2022/12/17 21:55:38;;;;;;;33.47;15.43;;;;;;;;;;12845657;19;20433;-65
2022/12/17 21:59:55;;;;;;;45.75;20.30;;;;;;;;;;12846205;19;20421;-63
2022/12/17 22:04:12;;;;;;;32.75;15.45;;;;;;;;;;12843748;19;20429;-63
2022/12/17 22:08:30;;;;;;;27.05;13.65;;;;;;;;;;12844344;19;20505;-64
2022/12/17 22:17:25;;;;;;;28.33;14.07;;;;;;;;;;12844434;19;20002;-63
2022/12/17 22:21:43;;;;;;;28.10;12.90;;;;;;;;;;12841204;19;20445;-64
2022/12/17 22:26:00;;;;;;;24.55;12.50;;;;;;;;;;12843032;19;20423;-64
2022/12/17 22:34:54;;;;;;;29.40;14.63;;;;;;;;;;12843010;19;20074;-63
2022/12/17 22:39:31;;;;;;;34.05;14.75;;;;;;;;;;12841447;19;20326;-65
2022/12/17 22:44:08;;;;;;;22.40;10.73;;;;;;;;;;12842895;19;20350;-64
2022/12/17 22:48:45;;;;;;;35.35;13.38;;;;;;;;;;12842690;19;20018;-63
2022/12/17 22:53:03;;;;;;;30.00;13.13;;;;;;;;;;12840095;19;20439;-64
2022/12/17 22:57:20;;;;;;;30.43;13.57;;;;;;;;;;12842581;19;20451;-63
2022/12/17 23:01:53;;;;;;;27.05;12.55;;;;;;;;;;12842040;19;20740;-64
2022/12/17 23:06:16;;;;;;;26.80;13.15;;;;;;;;;;12839771;19;20350;-64
2022/12/17 23:10:33;;;;;;;26.13;13.20;;;;;;;;;;12839793;19;20280;-64
2022/12/17 23:14:50;;;;;;;30.33;14.27;;;;;;;;;;12840066;19;20468;-64
2022/12/17 23:19:08;;;;;;;39.83;17.17;;;;;;;;;;12841576;19;20365;-63
2022/12/17 23:23:25;;;;;;;19.67;11.17;;;;;;;;;;12842978;19;20002;-63
2022/12/17 23:27:44;;;;;;;29.98;12.38;;;;;;;;;;12842634;19;20078;-64
2022/12/17 23:32:01;;;;;;;35.70;16.35;;;;;;;;;;12843446;19;20420;-63
2022/12/17 23:36:22;;;;;;;45.63;19.58;;;;;;;;;;12840773;19;20295;-65
2022/12/17 23:40:39;;;;;;;17.95;9.55;;;;;;;;;;12839652;19;20022;-64
2022/12/17 23:44:56;;;;;;;24.35;11.85;;;;;;;;;;12841530;19;20017;-64
2022/12/17 23:49:13;;;;;;;30.67;14.02;;;;;;;;;;12839878;19;20041;-65
2022/12/17 23:53:32;;;;;;;29.10;12.43;;;;;;;;;;12839675;19;20014;-63
2022/12/17 23:57:49;;;;;;;41.67;17.60;;;;;;;;;;12840956;19;20436;-64
